Flight Track Log - Related Links

Times and Time Zones

All times are in EDT time to prevent confusion due to time zone crossing. See the DAL6225 flight status page for this flight to view local times or setup timezone preferences in your user account.

Time Position Orientation Groundspeed Altitude Reporting Facility
EDT Latitude Longitude Course Direction KTS MPH feet Rate Location/Type
Thu 08:07:19 AM 43.0917 -89.2992 90° East 205 236 3,000  Level Chicago Center
Thu 08:08:21 AM 43.0922 -89.1936 90° East 243 280 5,500 2,371 Climbing Chicago Center
Thu 08:09:23 AM 43.0933 -89.0869 89° East 281 323 7,900 2,323 Climbing Chicago Center
Thu 08:10:25 AM 43.0983 -88.9742 86° East 297 342 10,300 1,984 Climbing Chicago Center
Thu 08:11:27 AM 43.1017 -88.8497 88° East 327 376 12,000 1,597 Climbing Chicago Center
Thu 08:12:29 AM 43.1058 -88.7108 88° East 363 418 13,600 1,839 Climbing Chicago Center
Thu 08:13:31 AM 43.1100 -88.5403 88° East 386 444 15,800 1,935 Climbing Chicago Center
Thu 08:14:33 AM 43.1133 -88.3892 88° East 397 457 17,600 1,645 Climbing Chicago Center
Thu 08:15:35 AM 43.1172 -88.2369 88° East 403 464 19,200 1,597 Climbing Chicago Center
Thu 08:16:37 AM 43.1253 -88.0842 86° East 405 466 20,900 1,632 Climbing Chicago Center
Thu 08:17:40 AM 43.1342 -87.9028 86° East 410 472 22,600 1,344 Climbing Chicago Center
Thu 08:18:42 AM 43.1408 -87.7419 87° East 421 484 23,700 1,065 Climbing Chicago Center
Thu 08:19:44 AM 43.1489 -87.5769 86° East 432 497 24,800 1,113 Climbing Chicago Center
Thu 08:20:46 AM 43.1567 -87.4089 86° East 441 507 26,000 1,113 Climbing Chicago Center
Thu 08:21:48 AM 43.1633 -87.2378 87° East 448 516 27,100 1,113 Climbing Chicago Center
Thu 08:22:50 AM 43.1703 -87.0392 87° East 449 517 28,300 1,016 Climbing Chicago Center
Thu 08:23:52 AM 43.1775 -86.8656 87° East 454 522 29,200 871 Climbing Chicago Center
Thu 08:24:54 AM 43.1844 -86.6919 87° East 456 525 30,100 823 Climbing Chicago Center
Thu 08:25:56 AM 43.1894 -86.5156 88° East 461 531 30,900 774 Climbing Chicago Center
Thu 08:26:58 AM 43.1958 -86.3372 87° East 469 540 31,700 774 Climbing Chicago Center
Thu 08:28:00 AM 43.2014 -86.1611 87° East 467 537 32,500 871 Climbing Chicago Center
Thu 08:29:02 AM 43.2081 -85.9483 87° East 468 539 33,500 871 Climbing Chicago Center
Thu 08:30:04 AM 43.2125 -85.7706 88° East 469 540 34,300 774 Climbing Chicago Center
Thu 08:31:06 AM 43.2178 -85.5919 88° East 470 541 35,100 823 Climbing Chicago Center
Thu 08:32:08 AM 43.2236 -85.4083 87° East 466 536 36,000 823 Climbing Chicago Center
Thu 08:33:10 AM 43.2272 -85.2297 88° East 467 537 36,800 774 Climbing Chicago Center
Thu 08:34:12 AM 43.2314 -85.0553 88° East 461 531 37,600 774 Climbing Chicago Center
Thu 08:35:14 AM 43.2350 -84.8806 88° East 460 529 38,400 677 Climbing Chicago Center
Thu 08:36:16 AM 43.2381 -84.7117 89° East 447 514 39,000 290 Climbing Chicago Center
Thu 08:37:18 AM 43.2406 -84.5397 89° East 450 518 39,000  Level Chicago Center
Thu 08:38:20 AM 43.2439 -84.3294 89° East 458 527 39,000  Level Chicago Center
Thu 08:39:22 AM 43.2469 -84.1539 89° East 460 529 39,000  Level Chicago Center
Thu 08:40:33 AM 43.2472 -83.9350 90° East 461 531 39,000  Level Cleveland Center
Thu 08:41:33 AM 43.2503 -83.7586 89° East 461 531 39,000  Level Cleveland Center
Thu 08:42:33 AM 43.2506 -83.5875 90° East 454 522 39,000  Level Cleveland Center
Thu 08:43:33 AM 43.2550 -83.4108 88° East 459 528 39,000  Level Cleveland Center
Thu 08:44:33 AM 43.2550 -83.2369 90° East 459 528 39,000  Level Cleveland Center
Thu 08:45:33 AM 43.2547 -83.0603 90° East 454 522 39,000  Level Cleveland Center
Thu 08:46:33 AM 43.2561 -82.8922 89° East 454 522 39,000  Level Cleveland Center
Thu 08:47:03 AM 43.2333 -82.8167 112° Southeast 450 518 39,000  Level Toronto Center
Thu 08:47:33 AM 43.2575 -82.7183 71° East 448 516 39,000  Level Cleveland Center
Thu 08:48:33 AM 43.2458 -82.5439 95° East 453 521 39,000  Level Cleveland Center
Thu 08:49:03 AM 43.2333 -82.4500 100° East 460 529 39,000  Level Toronto Center
Thu 08:50:03 AM 43.2167 -82.2667 97° East 460 529 39,000  Level Toronto Center
Thu 08:51:03 AM 43.2000 -82.1000 98° East 460 529 39,000  Level Toronto Center
Thu 08:52:03 AM 43.1833 -81.9167 97° East 460 529 39,000  Level Toronto Center
Thu 08:53:03 AM 43.1833 -81.7333 90° East 470 541 39,000  Level Toronto Center
Thu 08:54:03 AM 43.1667 -81.5833 99° East 470 541 39,000  Level Toronto Center
Thu 08:55:03 AM 43.1500 -81.4000 97° East 470 541 39,000  Level Toronto Center
Thu 08:56:03 AM 43.1333 -81.2167 97° East 470 541 39,000  Level Toronto Center
Thu 08:57:03 AM 43.1167 -81.0333 97° East 470 541 39,000  Level Toronto Center
Thu 08:58:03 AM 43.1000 -80.8667 98° East 470 541 39,000  Level Toronto Center
Thu 08:59:03 AM 43.1000 -80.6833 90° East 470 541 39,000  Level Toronto Center
Thu 09:00:03 AM 43.0833 -80.5000 97° East 470 541 39,000  Level Toronto Center
Thu 09:01:03 AM 43.0833 -80.3333 90° East 470 541 39,000  Level Toronto Center
Thu 09:02:03 AM 43.0500 -80.1333 103° East 470 541 39,000  Level Toronto Center
Thu 09:03:03 AM 43.0500 -79.9500 90° East 470 541 39,000  Level Toronto Center
Thu 09:04:03 AM 43.0333 -79.8000 99° East 470 541 39,000  Level Toronto Center
Thu 09:05:03 AM 43.0167 -79.6167 97° East 470 541 39,000  Level Toronto Center
Thu 09:06:03 AM 43.0000 -79.4333 97° East 470 541 39,000  Level Toronto Center
Thu 09:07:03 AM 42.9833 -79.2500 97° East 480 552 39,000  Level Toronto Center
Thu 09:08:03 AM 42.9667 -79.0667 97° East 470 541 39,000  Level Toronto Center
Thu 09:09:03 AM 42.9500 -78.8833 97° East 470 541 39,000  Level Toronto Center
Thu 09:10:03 AM 42.9333 -78.7167 98° East 470 541 39,000  Level Toronto Center
Thu 09:11:21 AM 42.9192 -78.5222 96° East 474 545 39,000  Level Cleveland Center
Thu 09:12:22 AM 42.8992 -78.3442 99° East 474 545 39,000  Level Cleveland Center
Thu 09:13:22 AM 42.8811 -78.1664 98° East 469 540 39,000  Level Cleveland Center
Thu 09:14:21 AM 42.8647 -77.9914 97° East 469 540 39,000 -100 Level Cleveland Center
Thu 09:15:22 AM 42.8436 -77.7967 98° East 469 540 38,800 -650 Descending Cleveland Center
Thu 09:16:21 AM 42.8225 -77.6194 99° East 469 540 37,700 -1,000 Descending Cleveland Center
Thu 09:17:52 AM 42.7853 -77.3750 102° East 463 533 36,300 -954 Descending Boston Center
Thu 09:18:52 AM 42.7614 -77.2033 101° East 469 540 35,300 -1,000 Descending Boston Center
Thu 09:19:52 AM 42.7353 -77.0258 101° East 469 540 34,300 -1,000 Descending Boston Center
Thu 09:20:52 AM 42.7108 -76.8544 101° East 469 540 33,300 -650 Descending Boston Center
Thu 09:21:52 AM 42.6861 -76.6803 101° East 469 540 33,000 -150 Descending Boston Center
Thu 09:22:52 AM 42.6611 -76.5092 101° East 469 540 33,000  Level Boston Center
Thu 09:23:52 AM 42.6358 -76.3381 101° East 469 540 33,000  Level Boston Center
Thu 09:24:52 AM 42.6103 -76.1672 101° East 464 534 33,000  Level Boston Center
Thu 09:25:52 AM 42.5864 -75.9964 101° East 464 534 33,000 -350 Level Boston Center
Thu 09:26:52 AM 42.5583 -75.8283 103° East 459 528 32,300 -850 Descending Boston Center
Thu 09:27:52 AM 42.5319 -75.6578 102° East 459 528 31,300 -1,000 Descending Boston Center
Thu 09:28:52 AM 42.5056 -75.4819 101° East 459 528 30,300 -1,000 Descending Boston Center
Thu 09:29:52 AM 42.4786 -75.3117 102° East 459 528 29,300 -1,100 Descending Boston Center
Thu 09:30:52 AM 42.4328 -75.1492 111° Southeast 459 528 28,100 -1,600 Descending Boston Center
Thu 09:31:52 AM 42.3719 -74.9806 116° Southeast 464 534 26,100 -2,150 Descending Boston Center
Thu 09:32:52 AM 42.3089 -74.8153 117° Southeast 465 535 23,800 -2,150 Descending Boston Center
Thu 09:33:52 AM 42.2536 -74.6617 116° Southeast 459 528 21,800 -2,000 Descending Boston Center
Thu 09:34:52 AM 42.1961 -74.5111 117° Southeast 449 517 19,800 -1,850 Descending Boston Center
Thu 09:35:52 AM 42.1425 -74.3608 116° Southeast 444 511 18,100 -900 Descending Boston Center
Thu 09:36:52 AM 42.0881 -74.2361 120° Southeast 437 503 18,000 -250 Descending Boston Center
Thu 09:37:52 AM 41.9875 -74.1411 145° Southeast 398 458 17,600 -450 Descending Boston Center
Thu 09:38:52 AM 41.8800 -74.0797 157° South 408 470 17,100 -600 Descending Boston Center
Thu 09:39:52 AM 41.7808 -74.0269 158° South 431 496 16,400 -1,900 Descending Boston Center
Thu 09:40:52 AM 41.6567 -73.9628 159° South 431 496 13,300 -2,650 Descending Boston Center
Thu 09:41:52 AM 41.5633 -73.9161 159° South 414 476 11,100 -1,628 Descending Boston Center
Thu 09:43:01 AM 41.4500 -73.8500 156° South 319 367 9,800 -1,395 Descending New York TRACON
Thu 09:44:01 AM 41.3667 -73.8167 163° South 301 346 8,100 -900 Descending New York TRACON
Thu 09:45:01 AM 41.3000 -73.7667 151° Southeast 296 341 8,000 -50 Descending New York TRACON
Thu 09:46:01 AM 41.2333 -73.7000 143° Southeast 300 345 8,000 -200 Level New York TRACON
Thu 09:47:01 AM 41.1667 -73.6333 143° Southeast 301 346 7,600 -1,050 Descending New York TRACON
Thu 09:48:01 AM 41.1000 -73.6167 169° South 283 326 5,900 -1,400 Descending New York TRACON
Thu 09:49:01 AM 41.0333 -73.6667 210° Southwest 247 284 4,800 -800 Descending New York TRACON
Thu 09:50:01 AM 40.9833 -73.7000 207° Southwest 224 258 4,300 -550 Descending New York TRACON
Thu 09:51:01 AM 40.9333 -73.7500 217° Southwest 199 229 3,700 -1,050 Descending New York TRACON
Thu 09:52:01 AM 40.8833 -73.7833 207° Southwest 199 229 2,200 -1,000 Descending New York TRACON
Thu 09:53:01 AM 40.8500 -73.8167 217° Southwest 173 199 1,700 -800 Descending New York TRACON
Thu 09:54:01 AM 40.8167 -73.8500 217° Southwest 140 161 600 -1,100 Descending New York TRACON
Thu 09:56:00 AM 40.7772 -73.8726 180° South  Level Estimated
Thu 10:03:00 AM 40.7772 -73.8726 180° South  Level Estimated

Login

Don't have an account? Register now (free) for customized features, flight alerts, and more!